sensor_id;sensor_type;location;lat;lon;timestamp;temperature;humidity
37408;DHT22;24866;50.248;8.252;2023-09-30T00:01:45;14.90;99.90
37408;DHT22;24866;50.248;8.252;2023-09-30T00:04:16;15.10;99.90
37408;DHT22;24866;50.248;8.252;2023-09-30T00:06:46;15.20;99.90
37408;DHT22;24866;50.248;8.252;2023-09-30T00:09:16;15.00;99.90
37408;DHT22;24866;50.248;8.252;2023-09-30T00:11:46;15.00;99.90
37408;DHT22;24866;50.248;8.252;2023-09-30T00:14:15;14.90;99.90
37408;DHT22;24866;50.248;8.252;2023-09-30T00:16:46;14.70;99.90
37408;DHT22;24866;50.248;8.252;2023-09-30T00:19:17;14.70;99.90
37408;DHT22;24866;50.248;8.252;2023-09-30T00:21:47;14.70;99.90
37408;DHT22;24866;50.248;8.252;2023-09-30T00:24:17;14.70;99.90
37408;DHT22;24866;50.248;8.252;2023-09-30T00:26:48;14.60;99.90
37408;DHT22;24866;50.248;8.252;2023-09-30T00:29:19;14.70;99.90
37408;DHT22;24866;50.248;8.252;2023-09-30T00:31:49;14.60;99.90
37408;DHT22;24866;50.248;8.252;2023-09-30T00:34:20;14.60;99.90
37408;DHT22;24866;50.248;8.252;2023-09-30T00:36:50;14.60;99.90
37408;DHT22;24866;50.248;8.252;2023-09-30T00:39:20;14.50;99.90
37408;DHT22;24866;50.248;8.252;2023-09-30T00:41:51;14.50;99.90
37408;DHT22;24866;50.248;8.252;2023-09-30T00:44:21;14.60;99.90
37408;DHT22;24866;50.248;8.252;2023-09-30T00:46:51;14.50;99.90
37408;DHT22;24866;50.248;8.252;2023-09-30T00:49:23;14.50;99.90
37408;DHT22;24866;50.248;8.252;2023-09-30T00:51:54;14.50;99.90
37408;DHT22;24866;50.248;8.252;2023-09-30T00:54:25;14.70;99.90
37408;DHT22;24866;50.248;8.252;2023-09-30T00:56:56;14.50;99.90
37408;DHT22;24866;50.248;8.252;2023-09-30T00:59:30;14.60;99.90
37408;DHT22;24866;50.248;8.252;2023-09-30T01:02:01;14.50;99.90
37408;DHT22;24866;50.248;8.252;2023-09-30T01:04:35;14.60;99.90
37408;DHT22;24866;50.248;8.252;2023-09-30T01:07:06;14.60;99.90
37408;DHT22;24866;50.248;8.252;2023-09-30T01:09:36;14.60;99.90
37408;DHT22;24866;50.248;8.252;2023-09-30T01:12:06;14.70;99.90
37408;DHT22;24866;50.248;8.252;2023-09-30T01:14:37;14.30;99.90
37408;DHT22;24866;50.248;8.252;2023-09-30T01:17:07;14.10;99.90
37408;DHT22;24866;50.248;8.252;2023-09-30T01:19:39;14.10;99.90
37408;DHT22;24866;50.248;8.252;2023-09-30T01:22:12;14.10;99.90
37408;DHT22;24866;50.248;8.252;2023-09-30T01:24:42;14.20;99.90
37408;DHT22;24866;50.248;8.252;2023-09-30T01:27:13;14.30;99.90
37408;DHT22;24866;50.248;8.252;2023-09-30T01:29:45;14.00;99.90
37408;DHT22;24866;50.248;8.252;2023-09-30T01:32:16;13.90;99.90
37408;DHT22;24866;50.248;8.252;2023-09-30T01:34:45;13.90;99.90
37408;DHT22;24866;50.248;8.252;2023-09-30T01:37:17;14.20;99.90
37408;DHT22;24866;50.248;8.252;2023-09-30T01:39:47;14.00;99.90
37408;DHT22;24866;50.248;8.252;2023-09-30T01:42:21;14.00;99.90
37408;DHT22;24866;50.248;8.252;2023-09-30T01:44:51;13.90;99.90
37408;DHT22;24866;50.248;8.252;2023-09-30T01:47:20;14.10;99.90
37408;DHT22;24866;50.248;8.252;2023-09-30T01:49:50;14.20;99.90
37408;DHT22;24866;50.248;8.252;2023-09-30T01:52:21;14.30;99.90
37408;DHT22;24866;50.248;8.252;2023-09-30T01:54:51;14.40;99.90
37408;DHT22;24866;50.248;8.252;2023-09-30T01:57:22;14.40;99.90
37408;DHT22;24866;50.248;8.252;2023-09-30T01:59:52;14.40;99.90
37408;DHT22;24866;50.248;8.252;2023-09-30T02:02:22;13.90;99.90
37408;DHT22;24866;50.248;8.252;2023-09-30T02:04:52;13.80;99.90
37408;DHT22;24866;50.248;8.252;2023-09-30T02:07:24;13.90;99.90
37408;DHT22;24866;50.248;8.252;2023-09-30T02:09:54;13.90;99.90
37408;DHT22;24866;50.248;8.252;2023-09-30T02:12:24;14.10;99.90
37408;DHT22;24866;50.248;8.252;2023-09-30T02:14:53;14.20;99.90
37408;DHT22;24866;50.248;8.252;2023-09-30T02:17:23;14.30;99.90
37408;DHT22;24866;50.248;8.252;2023-09-30T02:19:53;14.30;99.90
37408;DHT22;24866;50.248;8.252;2023-09-30T02:22:24;14.10;99.90
37408;DHT22;24866;50.248;8.252;2023-09-30T02:24:56;14.10;99.90
37408;DHT22;24866;50.248;8.252;2023-09-30T02:27:26;14.00;99.90
37408;DHT22;24866;50.248;8.252;2023-09-30T02:29:57;13.80;99.90
37408;DHT22;24866;50.248;8.252;2023-09-30T02:32:26;13.70;99.90
37408;DHT22;24866;50.248;8.252;2023-09-30T02:34:57;13.90;99.90
37408;DHT22;24866;50.248;8.252;2023-09-30T02:37:28;14.00;99.90
37408;DHT22;24866;50.248;8.252;2023-09-30T02:39:58;13.70;99.90
37408;DHT22;24866;50.248;8.252;2023-09-30T02:42:27;13.60;99.90
37408;DHT22;24866;50.248;8.252;2023-09-30T02:44:59;13.50;99.90
37408;DHT22;24866;50.248;8.252;2023-09-30T02:47:29;13.60;99.90
37408;DHT22;24866;50.248;8.252;2023-09-30T02:49:59;13.60;99.90
37408;DHT22;24866;50.248;8.252;2023-09-30T02:52:31;13.40;99.90
37408;DHT22;24866;50.248;8.252;2023-09-30T02:55:01;13.30;99.90
37408;DHT22;24866;50.248;8.252;2023-09-30T02:57:31;13.40;99.90
37408;DHT22;24866;50.248;8.252;2023-09-30T03:00:01;13.60;99.90
37408;DHT22;24866;50.248;8.252;2023-09-30T03:02:40;13.70;99.90
37408;DHT22;24866;50.248;8.252;2023-09-30T03:05:10;13.90;99.90
37408;DHT22;24866;50.248;8.252;2023-09-30T03:07:41;14.00;99.90
37408;DHT22;24866;50.248;8.252;2023-09-30T03:10:12;13.90;99.90
37408;DHT22;24866;50.248;8.252;2023-09-30T03:12:48;13.90;99.90
37408;DHT22;24866;50.248;8.252;2023-09-30T03:15:18;13.90;99.90
37408;DHT22;24866;50.248;8.252;2023-09-30T03:17:48;14.00;99.90
37408;DHT22;24866;50.248;8.252;2023-09-30T03:20:18;13.90;99.90
37408;DHT22;24866;50.248;8.252;2023-09-30T03:22:51;13.90;99.90
37408;DHT22;24866;50.248;8.252;2023-09-30T03:25:21;13.40;99.90
37408;DHT22;24866;50.248;8.252;2023-09-30T03:27:50;13.10;99.90
37408;DHT22;24866;50.248;8.252;2023-09-30T03:30:20;13.10;99.90
37408;DHT22;24866;50.248;8.252;2023-09-30T03:32:50;13.00;99.90
37408;DHT22;24866;50.248;8.252;2023-09-30T03:35:20;13.10;99.90
37408;DHT22;24866;50.248;8.252;2023-09-30T03:37:51;13.00;99.90
37408;DHT22;24866;50.248;8.252;2023-09-30T03:40:21;12.80;99.90
37408;DHT22;24866;50.248;8.252;2023-09-30T03:43:02;13.20;99.90
37408;DHT22;24866;50.248;8.252;2023-09-30T03:45:32;13.20;99.90
37408;DHT22;24866;50.248;8.252;2023-09-30T03:48:02;13.30;99.90
37408;DHT22;24866;50.248;8.252;2023-09-30T03:50:32;13.20;99.90
37408;DHT22;24866;50.248;8.252;2023-09-30T03:53:04;13.20;99.90
37408;DHT22;24866;50.248;8.252;2023-09-30T03:55:36;13.10;99.90
37408;DHT22;24866;50.248;8.252;2023-09-30T03:58:06;13.20;99.90
37408;DHT22;24866;50.248;8.252;2023-09-30T04:00:36;13.10;99.90
37408;DHT22;24866;50.248;8.252;2023-09-30T04:03:06;13.00;99.90
37408;DHT22;24866;50.248;8.252;2023-09-30T04:05:35;12.90;99.90
37408;DHT22;24866;50.248;8.252;2023-09-30T04:08:07;12.60;99.90
37408;DHT22;24866;50.248;8.252;2023-09-30T04:10:36;12.80;99.90
37408;DHT22;24866;50.248;8.252;2023-09-30T04:13:06;12.50;99.90
37408;DHT22;24866;50.248;8.252;2023-09-30T04:15:38;12.40;99.90
37408;DHT22;24866;50.248;8.252;2023-09-30T04:18:07;12.60;99.90
37408;DHT22;24866;50.248;8.252;2023-09-30T04:20:40;12.70;99.90
37408;DHT22;24866;50.248;8.252;2023-09-30T04:23:12;12.80;99.90
37408;DHT22;24866;50.248;8.252;2023-09-30T04:25:42;12.90;99.90
37408;DHT22;24866;50.248;8.252;2023-09-30T04:28:12;12.90;99.90
37408;DHT22;24866;50.248;8.252;2023-09-30T04:30:44;13.00;99.90
37408;DHT22;24866;50.248;8.252;2023-09-30T04:33:14;13.00;99.90
37408;DHT22;24866;50.248;8.252;2023-09-30T04:35:46;12.80;99.90
37408;DHT22;24866;50.248;8.252;2023-09-30T04:38:17;12.70;99.90
37408;DHT22;24866;50.248;8.252;2023-09-30T04:40:47;12.50;99.90
37408;DHT22;24866;50.248;8.252;2023-09-30T04:43:19;12.70;99.90
37408;DHT22;24866;50.248;8.252;2023-09-30T04:45:49;12.30;99.90
37408;DHT22;24866;50.248;8.252;2023-09-30T04:48:22;12.50;99.90
37408;DHT22;24866;50.248;8.252;2023-09-30T04:50:52;12.60;99.90
37408;DHT22;24866;50.248;8.252;2023-09-30T04:53:25;12.60;99.90
37408;DHT22;24866;50.248;8.252;2023-09-30T04:55:55;12.70;99.90
37408;DHT22;24866;50.248;8.252;2023-09-30T04:58:25;12.70;99.90
37408;DHT22;24866;50.248;8.252;2023-09-30T05:00:54;12.80;99.90
37408;DHT22;24866;50.248;8.252;2023-09-30T05:03:24;12.60;99.90
37408;DHT22;24866;50.248;8.252;2023-09-30T05:05:54;12.60;99.90
37408;DHT22;24866;50.248;8.252;2023-09-30T05:08:26;12.80;99.90
37408;DHT22;24866;50.248;8.252;2023-09-30T05:10:57;12.70;99.90
37408;DHT22;24866;50.248;8.252;2023-09-30T05:13:27;12.50;99.90
37408;DHT22;24866;50.248;8.252;2023-09-30T05:15:57;12.40;99.90
37408;DHT22;24866;50.248;8.252;2023-09-30T05:18:27;12.40;99.90
37408;DHT22;24866;50.248;8.252;2023-09-30T05:20:58;12.40;99.90
37408;DHT22;24866;50.248;8.252;2023-09-30T05:23:29;12.40;99.90
37408;DHT22;24866;50.248;8.252;2023-09-30T05:25:59;12.40;99.90
37408;DHT22;24866;50.248;8.252;2023-09-30T05:28:29;12.40;99.90
37408;DHT22;24866;50.248;8.252;2023-09-30T05:31:00;12.30;99.90
37408;DHT22;24866;50.248;8.252;2023-09-30T05:33:30;12.20;99.90
37408;DHT22;24866;50.248;8.252;2023-09-30T05:35:59;12.40;99.90
37408;DHT22;24866;50.248;8.252;2023-09-30T05:38:32;12.50;99.90
37408;DHT22;24866;50.248;8.252;2023-09-30T05:41:02;12.50;99.90
37408;DHT22;24866;50.248;8.252;2023-09-30T05:43:32;12.30;99.90
37408;DHT22;24866;50.248;8.252;2023-09-30T05:46:02;12.20;99.90
37408;DHT22;24866;50.248;8.252;2023-09-30T05:48:32;12.30;99.90
37408;DHT22;24866;50.248;8.252;2023-09-30T05:51:02;12.30;99.90
37408;DHT22;24866;50.248;8.252;2023-09-30T05:53:33;12.30;99.90
37408;DHT22;24866;50.248;8.252;2023-09-30T05:56:04;12.50;99.90
37408;DHT22;24866;50.248;8.252;2023-09-30T05:58:34;12.30;99.90
37408;DHT22;24866;50.248;8.252;2023-09-30T06:01:07;12.40;99.90
37408;DHT22;24866;50.248;8.252;2023-09-30T06:03:39;12.40;99.90
37408;DHT22;24866;50.248;8.252;2023-09-30T06:06:12;12.50;99.90
37408;DHT22;24866;50.248;8.252;2023-09-30T06:08:45;12.30;99.90
37408;DHT22;24866;50.248;8.252;2023-09-30T06:11:18;11.90;99.90
37408;DHT22;24866;50.248;8.252;2023-09-30T06:13:53;12.30;99.90
37408;DHT22;24866;50.248;8.252;2023-09-30T06:16:22;12.50;99.90
37408;DHT22;24866;50.248;8.252;2023-09-30T06:18:54;12.40;99.90
37408;DHT22;24866;50.248;8.252;2023-09-30T06:21:25;12.60;99.90
37408;DHT22;24866;50.248;8.252;2023-09-30T06:23:58;12.70;99.90
37408;DHT22;24866;50.248;8.252;2023-09-30T06:26:28;12.70;99.90
37408;DHT22;24866;50.248;8.252;2023-09-30T06:28:58;12.90;99.90
37408;DHT22;24866;50.248;8.252;2023-09-30T06:31:28;12.80;99.90
37408;DHT22;24866;50.248;8.252;2023-09-30T06:33:58;12.90;99.90
37408;DHT22;24866;50.248;8.252;2023-09-30T06:36:28;12.80;99.90
37408;DHT22;24866;50.248;8.252;2023-09-30T06:39:00;12.80;99.90
37408;DHT22;24866;50.248;8.252;2023-09-30T06:41:34;12.80;99.90
37408;DHT22;24866;50.248;8.252;2023-09-30T06:44:04;12.90;99.90
37408;DHT22;24866;50.248;8.252;2023-09-30T06:46:34;12.60;99.90
37408;DHT22;24866;50.248;8.252;2023-09-30T06:49:04;12.80;99.90
37408;DHT22;24866;50.248;8.252;2023-09-30T06:51:33;13.00;99.90
37408;DHT22;24866;50.248;8.252;2023-09-30T06:54:06;13.00;99.90
37408;DHT22;24866;50.248;8.252;2023-09-30T06:56:36;13.00;99.90
37408;DHT22;24866;50.248;8.252;2023-09-30T06:59:06;13.10;99.90
37408;DHT22;24866;50.248;8.252;2023-09-30T07:01:36;12.70;99.90
37408;DHT22;24866;50.248;8.252;2023-09-30T07:04:06;12.90;99.90
37408;DHT22;24866;50.248;8.252;2023-09-30T07:06:36;13.20;99.90
37408;DHT22;24866;50.248;8.252;2023-09-30T07:09:07;13.30;99.90
37408;DHT22;24866;50.248;8.252;2023-09-30T07:11:38;13.30;99.90
37408;DHT22;24866;50.248;8.252;2023-09-30T07:14:07;13.30;99.90
37408;DHT22;24866;50.248;8.252;2023-09-30T07:16:37;13.30;99.90
37408;DHT22;24866;50.248;8.252;2023-09-30T07:19:08;13.40;99.90
37408;DHT22;24866;50.248;8.252;2023-09-30T07:21:38;13.40;99.90
37408;DHT22;24866;50.248;8.252;2023-09-30T07:24:09;13.20;99.90
37408;DHT22;24866;50.248;8.252;2023-09-30T07:26:39;13.20;99.90
37408;DHT22;24866;50.248;8.252;2023-09-30T07:29:09;13.20;99.90
37408;DHT22;24866;50.248;8.252;2023-09-30T07:31:39;13.40;99.90
37408;DHT22;24866;50.248;8.252;2023-09-30T07:34:09;13.50;99.90
37408;DHT22;24866;50.248;8.252;2023-09-30T07:36:39;13.20;99.90
37408;DHT22;24866;50.248;8.252;2023-09-30T07:39:10;13.20;99.90
37408;DHT22;24866;50.248;8.252;2023-09-30T07:41:40;13.30;99.90
37408;DHT22;24866;50.248;8.252;2023-09-30T07:44:10;13.40;99.90
37408;DHT22;24866;50.248;8.252;2023-09-30T07:46:39;13.50;99.90
37408;DHT22;24866;50.248;8.252;2023-09-30T07:49:10;13.60;99.90
37408;DHT22;24866;50.248;8.252;2023-09-30T07:51:40;13.60;99.90
37408;DHT22;24866;50.248;8.252;2023-09-30T07:54:11;13.60;99.90
37408;DHT22;24866;50.248;8.252;2023-09-30T07:56:41;13.50;99.90
37408;DHT22;24866;50.248;8.252;2023-09-30T07:59:11;13.60;99.90
37408;DHT22;24866;50.248;8.252;2023-09-30T08:01:42;13.50;99.90
37408;DHT22;24866;50.248;8.252;2023-09-30T08:04:12;13.60;99.90
37408;DHT22;24866;50.248;8.252;2023-09-30T08:06:41;13.90;99.90
37408;DHT22;24866;50.248;8.252;2023-09-30T08:09:13;13.80;99.90
37408;DHT22;24866;50.248;8.252;2023-09-30T08:11:44;13.80;99.90
37408;DHT22;24866;50.248;8.252;2023-09-30T08:14:14;14.30;99.90
37408;DHT22;24866;50.248;8.252;2023-09-30T08:16:43;14.50;99.90
37408;DHT22;24866;50.248;8.252;2023-09-30T08:19:13;14.60;99.90
37408;DHT22;24866;50.248;8.252;2023-09-30T08:21:43;14.80;99.90
37408;DHT22;24866;50.248;8.252;2023-09-30T08:24:15;14.60;99.90
37408;DHT22;24866;50.248;8.252;2023-09-30T08:26:44;14.00;99.90
37408;DHT22;24866;50.248;8.252;2023-09-30T08:29:14;14.30;99.90
37408;DHT22;24866;50.248;8.252;2023-09-30T08:31:44;13.80;99.90
37408;DHT22;24866;50.248;8.252;2023-09-30T08:34:14;13.50;99.90
37408;DHT22;24866;50.248;8.252;2023-09-30T08:36:44;13.70;99.90
37408;DHT22;24866;50.248;8.252;2023-09-30T08:39:15;13.80;99.90
37408;DHT22;24866;50.248;8.252;2023-09-30T08:41:45;13.80;99.90
37408;DHT22;24866;50.248;8.252;2023-09-30T08:44:15;14.40;99.90
37408;DHT22;24866;50.248;8.252;2023-09-30T08:46:45;14.70;99.90
37408;DHT22;24866;50.248;8.252;2023-09-30T08:49:16;15.10;99.90
37408;DHT22;24866;50.248;8.252;2023-09-30T08:51:48;14.30;99.90
37408;DHT22;24866;50.248;8.252;2023-09-30T08:54:20;14.50;99.90
37408;DHT22;24866;50.248;8.252;2023-09-30T08:56:50;14.70;99.90
37408;DHT22;24866;50.248;8.252;2023-09-30T08:59:21;15.30;99.90
37408;DHT22;24866;50.248;8.252;2023-09-30T09:01:52;15.60;99.90
37408;DHT22;24866;50.248;8.252;2023-09-30T09:04:29;15.60;99.90
37408;DHT22;24866;50.248;8.252;2023-09-30T09:06:59;16.20;99.90
37408;DHT22;24866;50.248;8.252;2023-09-30T09:09:30;16.00;99.90
37408;DHT22;24866;50.248;8.252;2023-09-30T09:12:00;15.20;99.90
37408;DHT22;24866;50.248;8.252;2023-09-30T09:14:38;15.20;99.90
37408;DHT22;24866;50.248;8.252;2023-09-30T09:17:10;14.90;99.90
37408;DHT22;24866;50.248;8.252;2023-09-30T09:19:40;15.50;99.90
37408;DHT22;24866;50.248;8.252;2023-09-30T09:22:10;15.40;99.90
37408;DHT22;24866;50.248;8.252;2023-09-30T09:24:41;15.60;99.90
37408;DHT22;24866;50.248;8.252;2023-09-30T09:27:13;15.80;99.90
37408;DHT22;24866;50.248;8.252;2023-09-30T09:29:45;15.90;99.90
37408;DHT22;24866;50.248;8.252;2023-09-30T09:32:16;16.60;99.90
37408;DHT22;24866;50.248;8.252;2023-09-30T09:35:00;15.20;99.90
37408;DHT22;24866;50.248;8.252;2023-09-30T09:37:32;15.80;99.90
37408;DHT22;24866;50.248;8.252;2023-09-30T09:40:04;16.70;99.90
37408;DHT22;24866;50.248;8.252;2023-09-30T09:42:36;16.00;99.90
37408;DHT22;24866;50.248;8.252;2023-09-30T09:45:07;16.00;99.90
37408;DHT22;24866;50.248;8.252;2023-09-30T09:47:37;16.70;99.90
37408;DHT22;24866;50.248;8.252;2023-09-30T09:50:08;16.50;99.90
37408;DHT22;24866;50.248;8.252;2023-09-30T09:52:40;16.00;99.90
37408;DHT22;24866;50.248;8.252;2023-09-30T09:55:12;16.00;99.90
37408;DHT22;24866;50.248;8.252;2023-09-30T09:57:45;16.60;99.90
37408;DHT22;24866;50.248;8.252;2023-09-30T10:00:17;15.60;99.90
37408;DHT22;24866;50.248;8.252;2023-09-30T10:02:48;16.80;99.90
37408;DHT22;24866;50.248;8.252;2023-09-30T10:05:19;17.50;99.90
37408;DHT22;24866;50.248;8.252;2023-09-30T10:07:53;17.90;99.90
37408;DHT22;24866;50.248;8.252;2023-09-30T10:10:25;18.30;99.90
37408;DHT22;24866;50.248;8.252;2023-09-30T10:12:55;17.40;99.90
37408;DHT22;24866;50.248;8.252;2023-09-30T10:15:38;17.30;99.90
37408;DHT22;24866;50.248;8.252;2023-09-30T10:18:10;18.10;99.90
37408;DHT22;24866;50.248;8.252;2023-09-30T10:20:41;18.30;99.90
37408;DHT22;24866;50.248;8.252;2023-09-30T10:23:24;18.50;99.90
37408;DHT22;24866;50.248;8.252;2023-09-30T10:26:14;18.80;99.90
37408;DHT22;24866;50.248;8.252;2023-09-30T10:28:47;19.00;99.90
37408;DHT22;24866;50.248;8.252;2023-09-30T10:31:19;18.70;99.90
37408;DHT22;24866;50.248;8.252;2023-09-30T10:34:20;18.20;99.90
37408;DHT22;24866;50.248;8.252;2023-09-30T10:36:51;16.70;99.90
37408;DHT22;24866;50.248;8.252;2023-09-30T10:39:53;16.90;99.90
37408;DHT22;24866;50.248;8.252;2023-09-30T10:42:47;18.30;99.90
37408;DHT22;24866;50.248;8.252;2023-09-30T10:45:51;18.50;99.90
37408;DHT22;24866;50.248;8.252;2023-09-30T10:48:36;17.80;99.90
37408;DHT22;24866;50.248;8.252;2023-09-30T10:51:14;17.00;99.90
37408;DHT22;24866;50.248;8.252;2023-09-30T10:53:46;18.00;99.90
37408;DHT22;24866;50.248;8.252;2023-09-30T10:56:16;18.50;99.90
37408;DHT22;24866;50.248;8.252;2023-09-30T10:58:48;18.90;99.90
37408;DHT22;24866;50.248;8.252;2023-09-30T11:01:20;18.80;99.90
37408;DHT22;24866;50.248;8.252;2023-09-30T11:03:55;18.60;99.90
37408;DHT22;24866;50.248;8.252;2023-09-30T11:06:31;19.30;99.90
37408;DHT22;24866;50.248;8.252;2023-09-30T11:09:01;18.10;99.90
37408;DHT22;24866;50.248;8.252;2023-09-30T11:11:36;18.20;99.90
37408;DHT22;24866;50.248;8.252;2023-09-30T11:14:21;18.50;99.90
37408;DHT22;24866;50.248;8.252;2023-09-30T11:16:52;18.20;99.90
37408;DHT22;24866;50.248;8.252;2023-09-30T11:19:22;18.20;99.90
37408;DHT22;24866;50.248;8.252;2023-09-30T11:21:54;17.50;99.90
37408;DHT22;24866;50.248;8.252;2023-09-30T11:24:25;17.60;99.90
37408;DHT22;24866;50.248;8.252;2023-09-30T11:26:57;18.90;99.90
37408;DHT22;24866;50.248;8.252;2023-09-30T11:29:28;19.50;99.90
37408;DHT22;24866;50.248;8.252;2023-09-30T11:31:58;19.80;99.90
37408;DHT22;24866;50.248;8.252;2023-09-30T11:34:34;18.70;99.90
37408;DHT22;24866;50.248;8.252;2023-09-30T11:37:04;19.20;99.90
37408;DHT22;24866;50.248;8.252;2023-09-30T11:39:34;19.50;99.90
37408;DHT22;24866;50.248;8.252;2023-09-30T11:42:14;19.70;99.90
37408;DHT22;24866;50.248;8.252;2023-09-30T11:44:46;20.00;99.90
37408;DHT22;24866;50.248;8.252;2023-09-30T11:47:28;19.50;99.90
37408;DHT22;24866;50.248;8.252;2023-09-30T11:49:58;18.10;99.90
37408;DHT22;24866;50.248;8.252;2023-09-30T11:52:28;18.40;99.90
37408;DHT22;24866;50.248;8.252;2023-09-30T11:54:57;18.20;99.90
37408;DHT22;24866;50.248;8.252;2023-09-30T11:57:29;17.80;99.90
37408;DHT22;24866;50.248;8.252;2023-09-30T12:00:00;19.30;99.90
37408;DHT22;24866;50.248;8.252;2023-09-30T12:02:30;18.90;99.90
37408;DHT22;24866;50.248;8.252;2023-09-30T12:05:01;18.30;99.90
37408;DHT22;24866;50.248;8.252;2023-09-30T12:07:31;18.80;99.90
37408;DHT22;24866;50.248;8.252;2023-09-30T12:10:01;18.10;99.90
37408;DHT22;24866;50.248;8.252;2023-09-30T12:12:31;18.50;99.90
37408;DHT22;24866;50.248;8.252;2023-09-30T12:15:03;18.80;99.90
37408;DHT22;24866;50.248;8.252;2023-09-30T12:17:34;18.50;99.90
37408;DHT22;24866;50.248;8.252;2023-09-30T12:20:04;18.40;99.90
37408;DHT22;24866;50.248;8.252;2023-09-30T12:22:35;19.10;99.90
37408;DHT22;24866;50.248;8.252;2023-09-30T12:25:39;19.00;99.90
37408;DHT22;24866;50.248;8.252;2023-09-30T12:28:11;20.10;99.90
37408;DHT22;24866;50.248;8.252;2023-09-30T12:30:44;20.30;99.90
37408;DHT22;24866;50.248;8.252;2023-09-30T12:33:14;19.80;99.90
37408;DHT22;24866;50.248;8.252;2023-09-30T12:35:44;18.90;99.90
37408;DHT22;24866;50.248;8.252;2023-09-30T12:38:14;19.20;99.90
37408;DHT22;24866;50.248;8.252;2023-09-30T12:40:44;19.10;99.90
37408;DHT22;24866;50.248;8.252;2023-09-30T12:43:14;20.40;99.90
37408;DHT22;24866;50.248;8.252;2023-09-30T12:45:45;20.90;99.90
37408;DHT22;24866;50.248;8.252;2023-09-30T12:48:15;20.20;99.90
37408;DHT22;24866;50.248;8.252;2023-09-30T12:50:46;20.20;99.90
37408;DHT22;24866;50.248;8.252;2023-09-30T12:53:16;19.30;99.90
37408;DHT22;24866;50.248;8.252;2023-09-30T12:55:46;20.20;99.90
37408;DHT22;24866;50.248;8.252;2023-09-30T12:58:15;19.80;99.90
37408;DHT22;24866;50.248;8.252;2023-09-30T13:00:47;19.80;99.90
37408;DHT22;24866;50.248;8.252;2023-09-30T13:03:17;19.40;99.90
37408;DHT22;24866;50.248;8.252;2023-09-30T13:05:46;19.10;99.90
37408;DHT22;24866;50.248;8.252;2023-09-30T13:08:16;19.60;99.90
37408;DHT22;24866;50.248;8.252;2023-09-30T13:10:46;19.50;99.90
37408;DHT22;24866;50.248;8.252;2023-09-30T13:13:18;19.70;99.90
37408;DHT22;24866;50.248;8.252;2023-09-30T13:15:49;19.50;99.90
37408;DHT22;24866;50.248;8.252;2023-09-30T13:18:19;19.40;99.90
37408;DHT22;24866;50.248;8.252;2023-09-30T13:20:49;19.90;99.90
37408;DHT22;24866;50.248;8.252;2023-09-30T13:23:20;20.40;99.90
37408;DHT22;24866;50.248;8.252;2023-09-30T13:25:50;20.70;99.90
37408;DHT22;24866;50.248;8.252;2023-09-30T13:28:20;21.20;99.90
37408;DHT22;24866;50.248;8.252;2023-09-30T13:30:51;19.80;99.90
37408;DHT22;24866;50.248;8.252;2023-09-30T13:33:21;19.70;99.90
37408;DHT22;24866;50.248;8.252;2023-09-30T13:35:51;19.80;99.90
37408;DHT22;24866;50.248;8.252;2023-09-30T13:38:21;20.10;99.90
37408;DHT22;24866;50.248;8.252;2023-09-30T13:40:51;20.40;99.90
37408;DHT22;24866;50.248;8.252;2023-09-30T13:43:21;20.90;99.90
37408;DHT22;24866;50.248;8.252;2023-09-30T13:45:52;20.10;99.90
37408;DHT22;24866;50.248;8.252;2023-09-30T13:48:22;20.60;99.90
37408;DHT22;24866;50.248;8.252;2023-09-30T13:50:53;19.60;99.90
37408;DHT22;24866;50.248;8.252;2023-09-30T13:53:23;20.30;99.90
37408;DHT22;24866;50.248;8.252;2023-09-30T13:55:53;21.00;99.90
37408;DHT22;24866;50.248;8.252;2023-09-30T13:58:22;19.70;99.90
37408;DHT22;24866;50.248;8.252;2023-09-30T14:00:54;19.60;99.90
37408;DHT22;24866;50.248;8.252;2023-09-30T14:03:25;20.20;99.90
37408;DHT22;24866;50.248;8.252;2023-09-30T14:05:55;20.30;99.90
37408;DHT22;24866;50.248;8.252;2023-09-30T14:08:25;21.10;99.90
37408;DHT22;24866;50.248;8.252;2023-09-30T14:10:55;21.10;99.90
37408;DHT22;24866;50.248;8.252;2023-09-30T14:13:25;19.90;99.90
37408;DHT22;24866;50.248;8.252;2023-09-30T14:15:57;20.10;99.90
37408;DHT22;24866;50.248;8.252;2023-09-30T14:18:26;19.50;99.90
37408;DHT22;24866;50.248;8.252;2023-09-30T14:20:56;19.80;99.90
37408;DHT22;24866;50.248;8.252;2023-09-30T14:23:26;19.70;99.90
37408;DHT22;24866;50.248;8.252;2023-09-30T14:25:57;20.20;99.90
37408;DHT22;24866;50.248;8.252;2023-09-30T14:28:28;19.90;99.90
37408;DHT22;24866;50.248;8.252;2023-09-30T14:31:02;19.50;99.90
37408;DHT22;24866;50.248;8.252;2023-09-30T14:33:32;19.90;99.90
37408;DHT22;24866;50.248;8.252;2023-09-30T14:36:02;19.60;99.90
37408;DHT22;24866;50.248;8.252;2023-09-30T14:38:34;20.00;99.90
37408;DHT22;24866;50.248;8.252;2023-09-30T14:41:06;20.10;99.90
37408;DHT22;24866;50.248;8.252;2023-09-30T14:43:37;20.20;99.90
37408;DHT22;24866;50.248;8.252;2023-09-30T14:46:08;20.60;99.90
37408;DHT22;24866;50.248;8.252;2023-09-30T14:48:38;20.60;99.90
37408;DHT22;24866;50.248;8.252;2023-09-30T14:51:08;20.30;99.90
37408;DHT22;24866;50.248;8.252;2023-09-30T14:53:38;20.40;99.90
37408;DHT22;24866;50.248;8.252;2023-09-30T14:56:15;20.20;99.90
37408;DHT22;24866;50.248;8.252;2023-09-30T14:58:45;19.50;99.90
37408;DHT22;24866;50.248;8.252;2023-09-30T15:01:16;19.00;99.90
37408;DHT22;24866;50.248;8.252;2023-09-30T15:03:48;19.00;99.90
37408;DHT22;24866;50.248;8.252;2023-09-30T15:06:18;19.10;99.90
37408;DHT22;24866;50.248;8.252;2023-09-30T15:08:49;19.10;99.90
37408;DHT22;24866;50.248;8.252;2023-09-30T15:11:19;19.00;99.90
37408;DHT22;24866;50.248;8.252;2023-09-30T15:13:50;18.70;99.90
37408;DHT22;24866;50.248;8.252;2023-09-30T15:16:22;18.70;99.90
37408;DHT22;24866;50.248;8.252;2023-09-30T15:18:53;18.50;99.90
37408;DHT22;24866;50.248;8.252;2023-09-30T15:21:23;18.70;99.90
37408;DHT22;24866;50.248;8.252;2023-09-30T15:23:53;19.00;99.90
37408;DHT22;24866;50.248;8.252;2023-09-30T15:26:23;18.60;99.90
37408;DHT22;24866;50.248;8.252;2023-09-30T15:28:53;18.60;99.90
37408;DHT22;24866;50.248;8.252;2023-09-30T15:31:28;18.60;99.90
37408;DHT22;24866;50.248;8.252;2023-09-30T15:33:58;18.70;99.90
37408;DHT22;24866;50.248;8.252;2023-09-30T15:36:28;18.90;99.90
37408;DHT22;24866;50.248;8.252;2023-09-30T15:38:58;18.70;99.90
37408;DHT22;24866;50.248;8.252;2023-09-30T15:41:28;19.00;99.90
37408;DHT22;24866;50.248;8.252;2023-09-30T15:43:58;19.30;99.90
37408;DHT22;24866;50.248;8.252;2023-09-30T15:46:30;18.70;99.90
37408;DHT22;24866;50.248;8.252;2023-09-30T15:49:00;18.70;99.90
37408;DHT22;24866;50.248;8.252;2023-09-30T15:51:30;18.40;99.90
37408;DHT22;24866;50.248;8.252;2023-09-30T15:53:59;18.30;99.90
37408;DHT22;24866;50.248;8.252;2023-09-30T15:56:29;18.60;99.90